Tuesday, January 22, 2019, 9:03 PM GMT
Back to Local

CYQA, Muskoka, Ont.

Location: , , Canada Lat: 44.967
Local Time: 9:03 PM GMT (21:03 GMT) Lon: -79.3
Time Zone: GMT Elev: 918 ft

Show me the last for .
Show Coded

Time T Td Feel RH Dir Speed Gust Alt SLP Vis Weather Sky Remarks
2019-01-22 20:00 14 5 -3 66 140° 14 20 30.34 30.44 9 SCT048 SCT055 OVC087 None
2019-01-22 19:00 10 1 -2 66 120° 9 - 30.38 30.48 9 FEW060 BKN078 OVC089 None
2019-01-22 18:00 10 1 0 66 100° 7 - 30.42 30.52 9 OVC070 Pressure falling rapidly
2019-01-22 17:00 7 -2 -3 65 130° 6 - 30.47 30.56 9 BKN085 None
2019-01-22 16:00 3 -6 -9 65 150° 7 - 30.50 30.60 9 CLR None
2019-01-22 15:00 -2 -9 -14 70 120° 6 - 30.51 30.61 9 CLR None
2019-01-22 14:00 -8 -13 -21 76 110° 6 - 30.51 30.61 9 CLR None
2019-01-22 13:00 -17 -22 - 75 100° 2 - 30.51 30.62 9 SCT009 None
2019-01-22 12:49 -17 -22 -27 75 90° 3 - 30.51 30.62 9 SCT011 None
2019-01-22 12:04 -20 -26 -31 75 100° 3 - 30.53 30.64 9 BKN011 None
2019-01-22 12:00 -22 -27 -33 74 100° 3 - 30.54 30.65 9 SCT011 None
2019-01-22 11:00 -20 -26 -31 75 140° 3 - 30.52 30.63 9 CLR None
2019-01-22 10:00 -22 -27 - 74 - Calm - 30.50 30.61 9 CLR None
2019-01-22 09:00 -22 -27 - 74 - Calm - 30.54 30.65 9 CLR None
2019-01-22 08:00 -22 -27 - 74 - Calm - 30.53 30.64 9 CLR None
2019-01-22 07:00 -20 -26 - 75 - Calm - 30.51 30.62 9 CLR None
2019-01-22 06:00 -20 -26 - 75 - Calm - 30.50 30.61 9 CLR None
2019-01-22 05:00 -17 -20 - 82 - Calm - 30.49 30.60 9 CLR None
2019-01-22 04:00 -17 -20 - 82 - Calm - 30.49 30.60 9 CLR None
2019-01-22 03:00 -11 -17 -21 76 300° 3 - 30.48 30.59 9 CLR Pressure rising rapidly
2019-01-22 02:00 -8 -17 -19 63 300° 5 - 30.47 30.58 9 CLR None
2019-01-22 01:00 -6 -15 -20 63 290° 7 - 30.47 30.58 9 CLR None
2019-01-22 00:00 -4 -15 -19 58 300° 8 - 30.45 30.56 9 CLR None
2019-01-21 23:00 -4 -17 -18 53 300° 7 - 30.42 30.53 9 CLR None
2019-01-21 22:00 -2 -17 -16 49 300° 7 - 30.41 30.51 9 CLR None

Support USWX by starting your Amazon purchase here.